Time;durP1;ratioP1;P1;durP2;ratioP2;P2;SDS_P1;SDS_P2;PMS_P1;PMS_P2;Temp;Humidity;BMP_temperature;BMP_pressure;BME280_temperature;BME280_humidity;BME280_pressure;Samples;Min_cycle;Max_cycle;Signal;HPM_P1;HPM_P2
2021/07/27 00:01:38;;;;;;;9.55;6.35;;;18.60;99.90;;;;;;5053192;28;20080;-77
2021/07/27 00:04:05;;;;;;;14.48;6.22;;;18.60;99.90;;;;;;5053123;28;20040;-76
2021/07/27 00:06:33;;;;;;;10.13;6.68;;;18.60;99.90;;;;;;5049530;28;20508;-75
2021/07/27 00:09:00;;;;;;;11.90;7.18;;;18.60;99.90;;;;;;5052391;28;20080;-76
2021/07/27 00:11:27;;;;;;;12.35;7.05;;;18.40;99.90;;;;;;5052017;28;20087;-76
2021/07/27 00:13:54;;;;;;;10.65;7.32;;;18.30;99.90;;;;;;5051965;28;20071;-75
2021/07/27 00:16:21;;;;;;;11.50;6.93;;;18.30;99.90;;;;;;5051945;28;20129;-76
2021/07/27 00:18:48;;;;;;;14.13;7.25;;;18.40;99.90;;;;;;5051397;28;20098;-75
2021/07/27 00:21:15;;;;;;;12.45;7.30;;;18.50;99.90;;;;;;5052924;28;20667;-76
2021/07/27 00:23:43;;;;;;;16.63;8.00;;;18.40;99.90;;;;;;5053091;28;20076;-78
2021/07/27 00:26:14;;;;;;;11.30;6.32;;;18.40;99.90;;;;;;5053450;28;20106;-77
2021/07/27 00:28:42;;;;;;;16.02;7.65;;;18.30;99.90;;;;;;5053762;28;20101;-75
2021/07/27 00:31:15;;;;;;;12.02;7.68;;;18.30;99.90;;;;;;5047446;28;20094;-78
2021/07/27 00:33:42;;;;;;;12.80;7.85;;;18.30;99.90;;;;;;5046852;28;20044;-78
2021/07/27 00:36:10;;;;;;;16.05;8.00;;;18.20;99.90;;;;;;5046178;28;20076;-75
2021/07/27 00:38:37;;;;;;;14.43;7.78;;;18.10;99.90;;;;;;5046660;28;20094;-78
2021/07/27 00:41:05;;;;;;;12.10;8.27;;;18.00;99.90;;;;;;5048737;28;20083;-76
2021/07/27 00:43:32;;;;;;;12.88;7.47;;;18.00;99.90;;;;;;5049177;28;20106;-75
2021/07/27 00:46:00;;;;;;;13.43;7.40;;;18.00;99.90;;;;;;5043890;28;20113;-76
2021/07/27 00:48:27;;;;;;;11.88;7.35;;;18.00;99.90;;;;;;5041674;28;20058;-78
2021/07/27 00:50:54;;;;;;;10.13;7.10;;;18.00;99.90;;;;;;5044086;28;20493;-75
2021/07/27 00:53:22;;;;;;;13.80;7.70;;;18.00;99.90;;;;;;5041957;28;20048;-78
2021/07/27 00:55:51;;;;;;;11.48;7.38;;;18.00;99.90;;;;;;5043273;28;20087;-75
2021/07/27 00:58:19;;;;;;;12.10;7.68;;;17.90;99.90;;;;;;5045844;28;20699;-76
2021/07/27 01:00:46;;;;;;;12.82;7.32;;;17.90;99.90;;;;;;5048306;28;20464;-77
2021/07/27 01:03:14;;;;;;;11.63;7.47;;;17.90;99.90;;;;;;5047286;28;20076;-75
2021/07/27 01:05:41;;;;;;;20.48;8.90;;;17.90;99.90;;;;;;5051552;28;20044;-77
2021/07/27 01:08:08;;;;;;;12.68;7.63;;;17.80;99.90;;;;;;5049528;28;20131;-74
2021/07/27 01:10:35;;;;;;;11.30;6.78;;;17.90;99.90;;;;;;5050507;28;20138;-77
2021/07/27 01:13:04;;;;;;;11.88;7.13;;;17.90;99.90;;;;;;5050081;28;20105;-74
2021/07/27 01:15:32;;;;;;;15.98;7.90;;;17.90;99.90;;;;;;5050662;28;20079;-75
2021/07/27 01:18:03;;;;;;;12.50;7.50;;;17.90;99.90;;;;;;5051268;28;20056;-78
2021/07/27 01:20:40;;;;;;;11.50;7.32;;;17.80;99.90;;;;;;5049561;28;20049;-76
2021/07/27 01:39:38;;;;;;;13.85;8.40;;;17.80;99.90;;;;;;5050233;28;20103;-75
2021/07/27 01:42:11;;;;;;;14.20;7.55;;;17.80;99.90;;;;;;5048475;28;20460;-76
2021/07/27 01:44:45;;;;;;;15.13;7.60;;;17.70;99.90;;;;;;5046911;28;20052;-76
2021/07/27 01:47:14;;;;;;;13.43;7.78;;;17.70;99.90;;;;;;5046649;28;20563;-76
2021/07/27 01:49:42;;;;;;;13.82;7.13;;;17.70;99.90;;;;;;5045362;28;20135;-77
2021/07/27 01:52:13;;;;;;;12.75;7.20;;;17.60;99.90;;;;;;5047385;28;20106;-79
2021/07/27 01:55:07;;;;;;;14.05;7.10;;;17.70;99.90;;;;;;5047879;28;20040;-78
2021/07/27 01:57:34;;;;;;;11.10;7.03;;;17.60;99.90;;;;;;5047406;28;20869;-78
2021/07/27 02:00:09;;;;;;;13.80;6.78;;;17.70;99.90;;;;;;5046519;28;20457;-75
2021/07/27 02:02:36;;;;;;;12.43;7.30;;;17.70;99.90;;;;;;5046566;28;20076;-75
2021/07/27 02:05:03;;;;;;;11.55;7.07;;;17.60;99.90;;;;;;5046137;28;20580;-77
2021/07/27 02:07:30;;;;;;;13.02;6.57;;;17.60;99.90;;;;;;5045322;28;20560;-74
2021/07/27 02:10:03;;;;;;;14.00;7.28;;;17.60;99.90;;;;;;5046404;28;20091;-75
2021/07/27 02:12:37;;;;;;;15.07;7.30;;;17.50;99.90;;;;;;5045850;28;20416;-75
2021/07/27 02:15:22;;;;;;;13.77;7.18;;;17.50;99.90;;;;;;5049385;28;20451;-75
2021/07/27 02:17:50;;;;;;;13.18;7.28;;;17.40;99.90;;;;;;5047210;28;20067;-76
2021/07/27 02:20:17;;;;;;;14.48;7.15;;;17.40;99.90;;;;;;5047490;28;20080;-76
2021/07/27 02:22:44;;;;;;;12.73;7.47;;;17.40;99.90;;;;;;5048859;28;20045;-74
2021/07/27 02:25:14;;;;;;;13.38;7.65;;;17.40;99.90;;;;;;5047192;28;20133;-75
2021/07/27 02:27:41;;;;;;;14.65;7.60;;;17.30;99.90;;;;;;5046288;28;20056;-75
2021/07/27 02:30:08;;;;;;;16.17;8.13;;;17.30;99.90;;;;;;5047798;28;20076;-77
2021/07/27 02:32:37;;;;;;;17.42;8.25;;;17.30;99.90;;;;;;5048854;28;20127;-75
2021/07/27 02:35:06;;;;;;;10.52;7.47;;;17.30;99.90;;;;;;5047521;28;20153;-76
2021/07/27 02:37:34;;;;;;;14.85;8.07;;;17.40;99.90;;;;;;5047975;28;20052;-76
2021/07/27 02:40:01;;;;;;;14.30;8.50;;;17.40;99.90;;;;;;5046882;28;20110;-79
2021/07/27 02:42:29;;;;;;;14.30;7.82;;;17.40;99.90;;;;;;5045272;28;20052;-75
2021/07/27 02:44:56;;;;;;;15.20;8.02;;;17.30;99.90;;;;;;5048985;28;20044;-79
2021/07/27 02:47:24;;;;;;;11.98;7.40;;;17.30;99.90;;;;;;5046796;28;20417;-79
2021/07/27 02:49:51;;;;;;;12.68;8.52;;;17.30;99.90;;;;;;5046385;28;20063;-76
2021/07/27 02:52:18;;;;;;;13.45;8.23;;;17.40;99.90;;;;;;5052942;28;20524;-75
2021/07/27 02:54:46;;;;;;;15.85;8.00;;;17.40;99.90;;;;;;5054960;28;20052;-75
2021/07/27 02:57:13;;;;;;;12.48;7.90;;;17.40;99.90;;;;;;5054767;28;20052;-75
2021/07/27 02:59:41;;;;;;;14.38;8.02;;;17.30;99.90;;;;;;5053815;28;20045;-76
2021/07/27 03:02:08;;;;;;;13.88;7.38;;;17.30;99.90;;;;;;5043901;28;20040;-75
2021/07/27 03:04:35;;;;;;;14.00;7.53;;;17.30;99.90;;;;;;5045454;28;20105;-74
2021/07/27 03:07:03;;;;;;;13.05;8.10;;;17.30;99.90;;;;;;5045805;28;20079;-74
2021/07/27 03:09:32;;;;;;;16.02;8.52;;;17.40;99.90;;;;;;5044933;28;20049;-75
2021/07/27 03:11:59;;;;;;;13.52;7.43;;;17.30;99.90;;;;;;5049517;28;20143;-76
2021/07/27 03:14:26;;;;;;;14.07;7.30;;;17.30;99.90;;;;;;5049109;28;20080;-76
2021/07/27 03:16:56;;;;;;;12.27;7.30;;;17.30;99.90;;;;;;5049653;28;20128;-77
2021/07/27 03:19:23;;;;;;;13.82;7.78;;;17.40;99.90;;;;;;5046063;28;20044;-76
2021/07/27 03:21:50;;;;;;;13.73;6.90;;;17.40;99.90;;;;;;5049326;28;20091;-77
2021/07/27 03:24:17;;;;;;;12.70;7.80;;;17.30;99.90;;;;;;5048351;28;20080;-78
2021/07/27 03:26:44;;;;;;;12.88;7.50;;;17.30;99.90;;;;;;5048591;28;20137;-77
2021/07/27 03:29:10;;;;;;;14.27;7.10;;;17.30;99.90;;;;;;5047790;28;20094;-78
2021/07/27 03:31:37;;;;;;;11.07;7.40;;;17.30;99.90;;;;;;5046453;28;20080;-78
2021/07/27 03:34:06;;;;;;;13.13;6.93;;;17.30;99.90;;;;;;5047304;28;20088;-76
2021/07/27 03:36:33;;;;;;;11.95;6.93;;;17.20;99.90;;;;;;5048107;28;20045;-77
2021/07/27 03:39:00;;;;;;;13.25;6.93;;;17.20;99.90;;;;;;5047998;28;20102;-77
2021/07/27 03:41:27;;;;;;;11.65;6.57;;;17.10;99.90;;;;;;5047944;28;20056;-77
2021/07/27 03:43:54;;;;;;;12.95;7.25;;;17.00;99.90;;;;;;5048288;28;20049;-74
2021/07/27 03:46:21;;;;;;;13.40;7.30;;;17.10;99.90;;;;;;5047476;28;20106;-75
2021/07/27 03:48:47;;;;;;;11.63;7.57;;;17.10;99.90;;;;;;5047193;28;20076;-75
2021/07/27 03:51:16;;;;;;;17.20;7.40;;;17.20;99.90;;;;;;5047746;28;20045;-77
2021/07/27 03:53:43;;;;;;;12.60;6.80;;;17.10;99.90;;;;;;5047997;28;20080;-74
2021/07/27 03:56:13;;;;;;;13.20;7.53;;;17.10;99.90;;;;;;5047100;28;20417;-75
2021/07/27 03:58:43;;;;;;;14.00;7.57;;;17.10;99.90;;;;;;5048387;28;20083;-77
2021/07/27 04:01:10;;;;;;;23.13;7.75;;;17.20;99.90;;;;;;5051126;28;20060;-77
2021/07/27 04:03:37;;;;;;;12.88;7.60;;;17.10;99.90;;;;;;5053079;28;20126;-77
2021/07/27 04:06:04;;;;;;;14.80;8.02;;;17.10;99.90;;;;;;5052496;28;20048;-76
2021/07/27 04:08:33;;;;;;;16.58;8.05;;;17.00;99.90;;;;;;5050589;28;20536;-75
2021/07/27 04:11:04;;;;;;;13.25;7.55;;;17.00;99.90;;;;;;5050622;28;20171;-76
2021/07/27 04:13:32;;;;;;;13.57;8.07;;;17.00;99.90;;;;;;5050657;28;20789;-75
2021/07/27 04:16:01;;;;;;;13.10;8.88;;;17.00;99.90;;;;;;5049049;28;20151;-77
2021/07/27 04:18:28;;;;;;;12.63;7.88;;;16.90;99.90;;;;;;5048499;28;20055;-77
2021/07/27 04:20:58;;;;;;;12.75;7.80;;;16.90;99.90;;;;;;5050587;28;20053;-75
2021/07/27 04:23:25;;;;;;;16.42;8.88;;;16.90;99.90;;;;;;5052999;28;20079;-78
2021/07/27 04:25:53;;;;;;;14.40;8.18;;;17.00;99.90;;;;;;5053458;28;20157;-79
2021/07/27 04:28:21;;;;;;;15.30;8.65;;;17.00;99.90;;;;;;5050959;28;20094;-76
2021/07/27 04:30:48;;;;;;;15.07;8.43;;;17.00;99.90;;;;;;5050226;28;20057;-75
2021/07/27 04:33:16;;;;;;;17.45;8.85;;;17.00;99.90;;;;;;5051927;28;20044;-76
2021/07/27 04:35:43;;;;;;;15.10;8.00;;;16.90;99.90;;;;;;5049365;28;20064;-77
2021/07/27 04:38:10;;;;;;;23.50;9.02;;;16.90;99.90;;;;;;5047919;28;20101;-75
2021/07/27 04:40:37;;;;;;;19.30;8.68;;;16.90;99.90;;;;;;5052242;28;20101;-76
2021/07/27 04:43:05;;;;;;;14.25;8.55;;;16.90;99.90;;;;;;5045813;28;20048;-76
2021/07/27 04:45:32;;;;;;;14.95;9.13;;;16.90;99.90;;;;;;5047033;28;20090;-79
2021/07/27 04:47:59;;;;;;;12.20;7.68;;;16.80;99.90;;;;;;5047986;28;20063;-76
2021/07/27 04:50:26;;;;;;;16.02;9.32;;;16.90;99.90;;;;;;5051552;28;20055;-76
2021/07/27 04:52:59;;;;;;;14.70;8.30;;;17.00;99.90;;;;;;5053187;28;20043;-78
2021/07/27 04:55:26;;;;;;;13.93;8.15;;;17.10;99.90;;;;;;5056073;28;20037;-76
2021/07/27 04:57:53;;;;;;;13.50;7.82;;;17.10;99.90;;;;;;5057243;28;20540;-78
2021/07/27 05:00:26;;;;;;;15.60;8.38;;;17.20;99.90;;;;;;5051597;28;20143;-77
2021/07/27 05:02:53;;;;;;;16.40;8.00;;;17.20;99.90;;;;;;5050521;28;20060;-77
2021/07/27 05:05:20;;;;;;;14.52;7.90;;;17.20;99.90;;;;;;5049685;28;20497;-75
2021/07/27 05:07:48;;;;;;;15.23;7.65;;;17.20;99.90;;;;;;5039275;28;20055;-69
2021/07/27 05:10:15;;;;;;;14.00;7.63;;;17.20;99.90;;;;;;5039095;28;20052;-72
2021/07/27 05:12:42;;;;;;;11.77;7.03;;;17.40;99.90;;;;;;5038551;28;20572;-72
2021/07/27 05:15:09;;;;;;;15.40;8.77;;;17.40;99.90;;;;;;5046414;28;20052;-78
2021/07/27 05:17:39;;;;;;;14.55;7.78;;;17.40;99.90;;;;;;5050261;28;20048;-75
2021/07/27 05:20:07;;;;;;;13.40;7.47;;;17.50;99.90;;;;;;5050064;28;20159;-78
2021/07/27 05:22:34;;;;;;;12.07;6.70;;;17.50;99.90;;;;;;5051212;28;20048;-77
2021/07/27 05:25:02;;;;;;;13.85;7.22;;;17.50;99.90;;;;;;5050609;28;20044;-76
2021/07/27 05:27:32;;;;;;;14.70;7.85;;;17.60;99.90;;;;;;5050048;28;20060;-75
2021/07/27 05:29:59;;;;;;;11.35;7.15;;;17.70;99.90;;;;;;5048191;28;20534;-76
2021/07/27 05:32:27;;;;;;;13.45;7.40;;;17.70;99.90;;;;;;5050079;28;20110;-75
2021/07/27 05:34:55;;;;;;;12.88;7.10;;;17.80;99.90;;;;;;5051932;28;20123;-76
2021/07/27 05:37:22;;;;;;;14.88;7.22;;;17.80;99.90;;;;;;5050534;28;20131;-75
2021/07/27 05:39:49;;;;;;;13.77;8.52;;;17.80;99.90;;;;;;5048885;28;20056;-76
2021/07/27 05:42:17;;;;;;;11.32;6.72;;;17.80;99.90;;;;;;5050723;28;20516;-77
2021/07/27 05:44:44;;;;;;;15.40;7.57;;;17.90;99.90;;;;;;5047982;28;20048;-76
2021/07/27 05:47:11;;;;;;;12.40;6.78;;;17.90;99.90;;;;;;5049866;28;20569;-76
2021/07/27 05:49:38;;;;;;;18.73;8.25;;;18.00;99.90;;;;;;5048958;28;20048;-78
2021/07/27 05:52:11;;;;;;;12.43;6.93;;;18.00;99.90;;;;;;5050217;28;20056;-75
2021/07/27 05:54:38;;;;;;;16.40;6.80;;;18.10;99.90;;;;;;5046054;28;20917;-75
2021/07/27 05:57:05;;;;;;;12.02;6.85;;;18.10;99.90;;;;;;5048954;28;20080;-75
2021/07/27 05:59:32;;;;;;;14.30;5.95;;;18.20;99.90;;;;;;5045775;28;20086;-78
2021/07/27 06:01:59;;;;;;;10.88;6.10;;;18.30;99.90;;;;;;5040489;28;20965;-74
2021/07/27 06:04:26;;;;;;;9.95;6.10;;;18.30;99.90;;;;;;5044033;28;20052;-75
2021/07/27 06:06:53;;;;;;;11.60;5.45;;;18.40;99.90;;;;;;5041241;28;20084;-78
2021/07/27 06:09:21;;;;;;;10.48;5.45;;;18.40;99.90;;;;;;5043241;28;20517;-78
2021/07/27 06:11:48;;;;;;;8.82;5.30;;;18.40;99.90;;;;;;5040756;28;20762;-74
2021/07/27 06:14:15;;;;;;;13.15;5.72;;;18.50;99.90;;;;;;5044639;28;20052;-78
2021/07/27 06:16:42;;;;;;;11.00;5.47;;;18.50;99.90;;;;;;5050635;28;20106;-75
2021/07/27 06:19:09;;;;;;;12.95;6.53;;;18.60;99.90;;;;;;5051383;28;20128;-76
2021/07/27 06:21:39;;;;;;;13.45;5.45;;;18.70;99.90;;;;;;5053127;28;20084;-75
2021/07/27 06:24:06;;;;;;;9.52;5.28;;;18.80;99.90;;;;;;5052129;28;20048;-78
2021/07/27 06:26:35;;;;;;;9.00;4.65;;;18.90;99.90;;;;;;5049596;28;20052;-78
2021/07/27 06:29:03;;;;;;;10.80;5.38;;;19.00;99.90;;;;;;5051713;28;20102;-79
2021/07/27 06:31:30;;;;;;;13.73;5.05;;;19.10;99.90;;;;;;5052957;28;20521;-75
2021/07/27 06:33:57;;;;;;;10.05;5.18;;;19.20;99.90;;;;;;5054034;28;20044;-76
2021/07/27 06:36:24;;;;;;;7.65;4.60;;;19.30;99.90;;;;;;5050913;28;20451;-75
2021/07/27 06:38:51;;;;;;;9.73;5.25;;;19.30;99.90;;;;;;5050649;28;20053;-77
2021/07/27 06:41:18;;;;;;;10.38;5.10;;;19.50;99.90;;;;;;5050142;28;20049;-76
2021/07/27 06:43:46;;;;;;;9.85;4.90;;;19.50;99.90;;;;;;5052464;28;20387;-75
2021/07/27 06:46:13;;;;;;;9.38;5.32;;;19.50;99.90;;;;;;5051477;28;20140;-77
2021/07/27 06:48:42;;;;;;;9.85;5.10;;;19.60;99.90;;;;;;5052779;28;20049;-76
2021/07/27 06:51:11;;;;;;;9.13;4.97;;;19.70;99.90;;;;;;5052873;28;20060;-77
2021/07/27 06:53:39;;;;;;;10.02;4.97;;;19.80;99.90;;;;;;5053139;28;20076;-78
2021/07/27 06:56:07;;;;;;;9.13;4.95;;;19.70;99.90;;;;;;5054007;28;20078;-79
2021/07/27 06:58:34;;;;;;;10.27;5.00;;;19.90;99.90;;;;;;5053263;28;20388;-77
2021/07/27 07:01:03;;;;;;;11.65;5.82;;;20.00;99.90;;;;;;5054410;28;20080;-76
2021/07/27 07:03:31;;;;;;;12.70;5.28;;;20.10;99.90;;;;;;5053550;28;21854;-78
2021/07/27 07:05:58;;;;;;;10.88;5.82;;;20.20;99.90;;;;;;5054519;28;20084;-76
2021/07/27 07:08:25;;;;;;;9.02;5.13;;;20.20;99.90;;;;;;5057382;28;20048;-79
2021/07/27 07:10:57;;;;;;;9.57;5.25;;;20.20;99.90;;;;;;5058618;28;20044;-76
2021/07/27 07:13:24;;;;;;;16.30;6.30;;;20.40;99.90;;;;;;5057017;28;20083;-77
2021/07/27 07:15:52;;;;;;;10.00;5.50;;;20.40;99.90;;;;;;5058469;28;20045;-77
2021/07/27 07:18:20;;;;;;;10.20;5.53;;;20.50;99.90;;;;;;5056943;28;20059;-77
2021/07/27 07:20:48;;;;;;;11.30;5.47;;;20.70;99.90;;;;;;5058128;28;20580;-79
2021/07/27 07:23:15;;;;;;;14.05;5.53;;;20.60;99.90;;;;;;5056902;28;20084;-76
2021/07/27 07:25:43;;;;;;;8.88;5.22;;;20.60;99.90;;;;;;5057172;28;20056;-78
2021/07/27 07:28:12;;;;;;;11.52;5.55;;;20.80;99.90;;;;;;5055817;28;20436;-78
2021/07/27 07:30:39;;;;;;;9.07;5.10;;;20.80;99.90;;;;;;5058533;28;20045;-76
2021/07/27 07:33:06;;;;;;;9.38;5.22;;;20.90;99.90;;;;;;5056556;28;20161;-77
2021/07/27 07:35:35;;;;;;;9.52;4.82;;;20.90;99.90;;;;;;5056187;28;20508;-75
2021/07/27 07:38:04;;;;;;;14.27;5.50;;;21.00;99.90;;;;;;5056440;28;20056;-78
2021/07/27 07:40:31;;;;;;;8.38;5.10;;;21.20;99.90;;;;;;5060129;28;20432;-77
2021/07/27 07:42:59;;;;;;;8.98;4.55;;;21.30;99.90;;;;;;5056773;28;20201;-75
2021/07/27 07:45:26;;;;;;;8.10;4.53;;;21.50;99.90;;;;;;5057528;28;20049;-76
2021/07/27 07:47:53;;;;;;;11.48;5.07;;;21.60;99.90;;;;;;5055284;28;20465;-78
2021/07/27 07:50:20;;;;;;;9.80;5.22;;;21.80;99.90;;;;;;5056814;28;20080;-76
2021/07/27 07:52:58;;;;;;;10.05;5.20;;;21.80;99.90;;;;;;5057389;28;20544;-75
2021/07/27 07:55:25;;;;;;;10.02;5.28;;;22.00;99.90;;;;;;5057349;28;20053;-75
2021/07/27 07:57:52;;;;;;;8.25;5.40;;;22.10;99.90;;;;;;5057301;28;20113;-77
2021/07/27 08:00:20;;;;;;;12.57;4.82;;;22.30;99.90;;;;;;5056913;28;20147;-76
2021/07/27 08:02:47;;;;;;;10.40;5.50;;;22.30;99.90;;;;;;5057949;28;20063;-79
2021/07/27 08:05:14;;;;;;;9.60;5.82;;;22.20;99.90;;;;;;5056652;28;20451;-75
2021/07/27 08:07:41;;;;;;;11.70;4.78;;;22.70;99.90;;;;;;5056900;28;20048;-77
2021/07/27 08:10:11;;;;;;;9.02;4.88;;;22.90;99.90;;;;;;5056944;28;20078;-74
2021/07/27 08:12:38;;;;;;;8.52;4.72;;;23.00;99.90;;;;;;5056235;28;20075;-74
2021/07/27 08:15:06;;;;;;;10.68;4.50;;;23.00;99.90;;;;;;5055095;28;20045;-75
2021/07/27 08:17:33;;;;;;;9.98;5.25;;;23.20;99.90;;;;;;5053238;28;20048;-78
2021/07/27 08:20:01;;;;;;;9.32;4.47;;;23.20;99.90;;;;;;5055188;28;20451;-76
2021/07/27 08:22:28;;;;;;;9.52;4.95;;;23.40;99.90;;;;;;5053974;28;20757;-76
2021/07/27 08:24:55;;;;;;;6.85;4.43;;;23.30;99.90;;;;;;5057233;28;20421;-76
2021/07/27 08:27:24;;;;;;;9.77;5.25;;;23.20;99.90;;;;;;5057386;28;20083;-78
2021/07/27 08:29:51;;;;;;;8.70;5.00;;;23.30;99.90;;;;;;5055918;28;20596;-77
2021/07/27 08:32:18;;;;;;;8.50;4.85;;;23.50;99.90;;;;;;5055426;28;20045;-75
2021/07/27 08:34:45;;;;;;;9.43;4.60;;;24.10;99.90;;;;;;5056565;28;20072;-76
2021/07/27 08:37:12;;;;;;;7.43;4.28;;;24.30;99.90;;;;;;5057122;28;20425;-75
2021/07/27 08:39:39;;;;;;;12.82;4.97;;;24.40;99.90;;;;;;5052695;28;20049;-75
2021/07/27 08:42:09;;;;;;;10.05;5.28;;;24.20;99.90;;;;;;5054276;28;20059;-75
2021/07/27 08:44:37;;;;;;;9.38;5.03;;;24.10;99.90;;;;;;5054079;28;20520;-75
2021/07/27 08:47:06;;;;;;;7.75;4.57;;;24.20;99.90;;;;;;5056975;28;20083;-75
2021/07/27 08:49:34;;;;;;;10.68;5.15;;;24.30;99.90;;;;;;5059290;28;20101;-76
2021/07/27 08:52:03;;;;;;;7.35;4.20;;;24.30;99.90;;;;;;5053982;28;20048;-76
2021/07/27 08:54:30;;;;;;;8.63;4.35;;;24.10;99.90;;;;;;5053616;28;20131;-80
2021/07/27 08:56:57;;;;;;;9.65;4.80;;;24.00;99.90;;;;;;5055233;28;21136;-80
2021/07/27 08:59:24;;;;;;;6.78;4.55;;;24.40;99.90;;;;;;5052468;28;20045;-76
2021/07/27 09:01:54;;;;;;;8.05;5.00;;;24.70;99.90;;;;;;5054887;28;20541;-79
2021/07/27 09:04:28;;;;;;;7.63;4.28;;;25.00;99.90;;;;;;5058554;28;20133;-77
2021/07/27 09:06:59;;;;;;;7.25;4.50;;;25.60;99.90;;;;;;5062738;28;20045;-77
2021/07/27 09:09:30;;;;;;;8.57;4.90;;;25.70;99.90;;;;;;5062473;28;20543;-76
2021/07/27 09:11:58;;;;;;;8.40;4.95;;;25.80;99.90;;;;;;5063036;28;20469;-75
2021/07/27 09:14:26;;;;;;;7.15;4.45;;;26.30;99.90;;;;;;5060284;28;20167;-79
2021/07/27 09:16:56;;;;;;;8.40;4.43;;;26.30;99.90;;;;;;5061669;28;20049;-79
2021/07/27 09:19:23;;;;;;;8.13;4.28;;;27.10;99.90;;;;;;5063006;28;20052;-75
2021/07/27 09:21:50;;;;;;;9.10;4.75;;;27.90;99.90;;;;;;5060504;28;20882;-75
2021/07/27 09:24:25;;;;;;;8.63;4.50;;;27.70;99.90;;;;;;5062684;28;20075;-75
2021/07/27 09:26:56;;;;;;;10.60;4.75;;;28.50;99.90;;;;;;5061827;28;20440;-75
2021/07/27 09:29:27;;;;;;;8.88;4.55;;;28.60;99.90;;;;;;5059215;28;20064;-78
2021/07/27 09:31:57;;;;;;;7.07;4.32;;;27.90;99.90;;;;;;5061081;28;20064;-78
2021/07/27 09:34:27;;;;;;;8.52;4.53;;;26.90;99.90;;;;;;5061918;28;20128;-75
2021/07/27 09:37:05;;;;;;;7.95;4.50;;;26.30;99.90;;;;;;5063551;28;20389;-74
2021/07/27 09:39:32;;;;;;;7.82;4.30;;;25.80;99.90;;;;;;5070029;28;20052;-75
2021/07/27 09:42:04;;;;;;;10.02;4.78;;;25.90;99.90;;;;;;5064963;28;20142;-78
2021/07/27 09:44:32;;;;;;;7.75;4.28;;;25.40;99.90;;;;;;5060614;28;20604;-79
2021/07/27 09:47:02;;;;;;;8.63;4.50;;;25.60;99.90;;;;;;5060385;28;20084;-80
2021/07/27 09:49:29;;;;;;;6.70;4.13;;;25.50;99.90;;;;;;5060560;28;20089;-75
2021/07/27 09:51:57;;;;;;;6.75;4.07;;;26.00;99.90;;;;;;5061882;28;20409;-75
2021/07/27 09:54:25;;;;;;;8.20;4.82;;;26.50;99.90;;;;;;5058957;28;20141;-77
2021/07/27 09:56:53;;;;;;;6.05;4.00;;;26.80;99.90;;;;;;5060799;28;20122;-77
2021/07/27 09:59:22;;;;;;;9.25;4.75;;;26.70;99.90;;;;;;5059196;28;20337;-75
2021/07/27 10:01:53;;;;;;;7.05;4.13;;;26.70;99.90;;;;;;5059941;28;20080;-76
2021/07/27 10:04:28;;;;;;;7.40;4.38;;;26.80;99.90;;;;;;5058823;28;20040;-76
2021/07/27 10:06:55;;;;;;;8.30;4.57;;;26.80;99.90;;;;;;5057859;28;20045;-77
2021/07/27 10:09:26;;;;;;;7.68;4.38;;;27.00;99.90;;;;;;5054745;28;20494;-78
2021/07/27 10:12:04;;;;;;;6.50;4.13;;;26.90;99.90;;;;;;5052376;28;20114;-76
2021/07/27 10:14:39;;;;;;;7.55;4.57;;;26.40;99.90;;;;;;5053279;28;20088;-77
2021/07/27 10:17:06;;;;;;;7.65;4.90;;;26.80;99.90;;;;;;5055856;28;20501;-76
2021/07/27 10:19:40;;;;;;;10.52;4.45;;;27.20;99.90;;;;;;5055004;28;20125;-78
2021/07/27 10:22:09;;;;;;;7.70;4.50;;;27.00;99.90;;;;;;5056498;28;20130;-77
2021/07/27 10:24:37;;;;;;;7.47;4.60;;;26.80;99.90;;;;;;5057465;28;20390;-78
2021/07/27 10:27:08;;;;;;;14.95;4.57;;;26.90;99.90;;;;;;5059366;28;20151;-75
2021/07/27 10:29:35;;;;;;;8.73;4.80;;;26.70;99.90;;;;;;5057031;28;20040;-76
2021/07/27 10:32:13;;;;;;;7.93;4.88;;;26.50;99.90;;;;;;5056893;28;20143;-77
2021/07/27 10:34:42;;;;;;;10.10;4.88;;;26.70;99.90;;;;;;5058718;28;20074;-75
2021/07/27 10:37:09;;;;;;;7.95;4.63;;;26.80;99.90;;;;;;5058990;28;20043;-79
2021/07/27 10:39:49;;;;;;;7.78;4.60;;;26.70;99.90;;;;;;5059568;28;20044;-75
2021/07/27 10:42:16;;;;;;;8.48;4.68;;;26.80;99.90;;;;;;5061552;28;20052;-76
2021/07/27 10:44:44;;;;;;;9.25;4.38;;;26.90;99.90;;;;;;5062633;28;20051;-76
2021/07/27 10:47:19;;;;;;;8.27;4.93;;;26.70;99.90;;;;;;5056623;28;20056;-77
2021/07/27 10:49:59;;;;;;;6.82;4.40;;;26.30;99.90;;;;;;5057212;28;20059;-76
2021/07/27 10:52:27;;;;;;;7.82;4.72;;;26.70;99.90;;;;;;5059465;28;20063;-77
2021/07/27 10:54:58;;;;;;;6.97;4.50;;;27.10;99.90;;;;;;5057613;28;20056;-77
2021/07/27 10:57:32;;;;;;;7.95;4.88;;;27.40;99.90;;;;;;5056316;28;20047;-78
2021/07/27 10:59:59;;;;;;;6.70;4.05;;;27.40;99.90;;;;;;5054654;28;20041;-76
2021/07/27 11:02:26;;;;;;;9.48;4.57;;;27.60;99.90;;;;;;5053709;28;20576;-77
2021/07/27 11:04:54;;;;;;;7.68;5.13;;;28.00;99.90;;;;;;5052377;28;20052;-79
2021/07/27 11:07:21;;;;;;;8.68;4.50;;;28.30;99.90;;;;;;5054407;28;20048;-77
2021/07/27 11:09:49;;;;;;;9.10;5.07;;;28.10;99.90;;;;;;5055074;28;20131;-78
2021/07/27 11:12:32;;;;;;;8.98;4.50;;;28.70;99.90;;;;;;5059937;28;20482;-75
2021/07/27 11:15:10;;;;;;;7.03;4.65;;;28.50;99.90;;;;;;5062498;28;20625;-76
2021/07/27 11:17:39;;;;;;;7.65;4.70;;;28.70;99.90;;;;;;5060169;28;20102;-77
2021/07/27 11:20:09;;;;;;;8.65;4.50;;;29.10;99.90;;;;;;5060983;28;20471;-75
2021/07/27 11:22:36;;;;;;;8.93;5.07;;;29.40;99.90;;;;;;5057535;28;20056;-79
2021/07/27 11:25:04;;;;;;;8.88;5.15;;;28.90;99.90;;;;;;5055267;28;20060;-75
2021/07/27 11:27:32;;;;;;;7.07;4.43;;;28.40;99.90;;;;;;5056888;28;20584;-77
2021/07/27 11:30:00;;;;;;;7.80;4.63;;;28.30;99.90;;;;;;5057642;28;20091;-76
2021/07/27 11:32:40;;;;;;;8.65;4.63;;;27.70;99.90;;;;;;5059535;28;20052;-75
2021/07/27 11:35:09;;;;;;;13.52;5.40;;;27.40;99.90;;;;;;5057978;28;20463;-78
2021/07/27 11:37:37;;;;;;;8.20;4.40;;;26.80;99.90;;;;;;5055313;28;20149;-76
2021/07/27 11:40:04;;;;;;;7.60;4.72;;;26.50;99.90;;;;;;5054530;28;20079;-75
2021/07/27 11:42:32;;;;;;;9.80;5.05;;;26.40;99.90;;;;;;5052941;28;20114;-76
2021/07/27 11:45:01;;;;;;;7.38;4.30;;;26.40;99.90;;;;;;5054586;28;20084;-76
2021/07/27 11:47:41;;;;;;;7.18;4.55;;;26.60;99.90;;;;;;5055894;28;20402;-75
2021/07/27 11:50:13;;;;;;;8.90;4.35;;;27.20;99.90;;;;;;5056471;28;20055;-76
2021/07/27 11:52:41;;;;;;;6.35;4.30;;;27.70;99.90;;;;;;5058748;28;20048;-75
2021/07/27 11:55:08;;;;;;;8.35;4.50;;;27.90;99.90;;;;;;5059611;28;20402;-78
2021/07/27 11:57:35;;;;;;;7.53;4.97;;;28.20;99.90;;;;;;5061384;28;20084;-77
2021/07/27 12:00:07;;;;;;;6.55;4.32;;;28.50;99.90;;;;;;5060507;28;20133;-76
2021/07/27 12:02:34;;;;;;;8.98;4.68;;;28.50;99.90;;;;;;5061747;28;20044;-77
2021/07/27 12:05:01;;;;;;;8.68;4.40;;;28.90;99.90;;;;;;5062081;28;20501;-75
2021/07/27 12:07:30;;;;;;;9.68;4.85;;;29.60;99.90;;;;;;5062740;28;20051;-76
2021/07/27 12:09:57;;;;;;;6.97;4.30;;;29.30;99.90;;;;;;5061322;28;20064;-77
2021/07/27 12:12:24;;;;;;;7.88;4.20;;;29.10;99.90;;;;;;5058287;28;20110;-78
2021/07/27 12:14:51;;;;;;;9.32;4.68;;;28.80;99.90;;;;;;5063282;28;20655;-74
2021/07/27 12:17:18;;;;;;;8.50;4.82;;;28.90;99.90;;;;;;5054551;28;20132;-75
2021/07/27 12:19:45;;;;;;;6.53;4.30;;;28.80;99.90;;;;;;5056698;28;20134;-68
2021/07/27 12:22:12;;;;;;;13.10;5.25;;;28.20;99.90;;;;;;5051687;28;20058;-73
2021/07/27 12:24:40;;;;;;;7.97;4.20;;;28.40;99.90;;;;;;5048982;28;20060;-75
2021/07/27 12:27:07;;;;;;;8.55;4.80;;;27.50;99.90;;;;;;5052176;28;20045;-77
2021/07/27 12:29:35;;;;;;;7.60;4.30;;;27.10;99.90;;;;;;5048264;28;20485;-75
2021/07/27 12:32:01;;;;;;;7.82;4.50;;;27.00;99.90;;;;;;5048238;28;20143;-75
2021/07/27 12:34:29;;;;;;;7.70;4.18;;;27.00;99.90;;;;;;5045577;28;20455;-78
2021/07/27 12:36:56;;;;;;;8.48;4.43;;;27.20;99.90;;;;;;5046437;28;20693;-75
2021/07/27 12:39:24;;;;;;;7.80;4.35;;;26.80;99.90;;;;;;5045375;28;20052;-75
2021/07/27 12:41:52;;;;;;;6.05;3.85;;;26.70;99.90;;;;;;5046466;28;20059;-76
2021/07/27 12:44:19;;;;;;;9.45;4.45;;;26.90;99.90;;;;;;5044699;28;20554;-76
2021/07/27 12:46:47;;;;;;;7.15;4.40;;;27.00;99.90;;;;;;5047245;28;20128;-74
2021/07/27 12:49:15;;;;;;;9.18;4.20;;;27.60;99.90;;;;;;5043294;28;20552;-75
2021/07/27 12:51:43;;;;;;;8.77;4.28;;;27.90;99.90;;;;;;5041327;28;20052;-75
2021/07/27 12:54:10;;;;;;;8.32;5.05;;;27.90;99.90;;;;;;5048830;28;20072;-76
2021/07/27 12:56:38;;;;;;;6.93;4.47;;;27.70;99.90;;;;;;5049477;28;20135;-74
2021/07/27 12:59:06;;;;;;;7.13;4.53;;;27.50;99.90;;;;;;5051481;28;20127;-74
2021/07/27 13:01:34;;;;;;;7.55;4.45;;;27.70;99.90;;;;;;5051885;28;20134;-75
2021/07/27 13:04:01;;;;;;;6.68;4.20;;;27.70;99.90;;;;;;5047023;28;20167;-74